sensor_id;sensor_type;location;lat;lon;timestamp;temperature;humidity
79187;SHT31;68762;51.980;5.646;2023-06-14T00:00:03;23.6;33.6
79187;SHT31;68762;51.980;5.646;2023-06-14T00:02:34;23.6;33.8
79187;SHT31;68762;51.980;5.646;2023-06-14T00:05:02;23.6;34.0
79187;SHT31;68762;51.980;5.646;2023-06-14T00:07:39;23.5;33.4
79187;SHT31;68762;51.980;5.646;2023-06-14T00:10:11;23.5;34.2
79187;SHT31;68762;51.980;5.646;2023-06-14T00:12:39;23.4;33.6
79187;SHT31;68762;51.980;5.646;2023-06-14T00:15:09;23.4;34.0
79187;SHT31;68762;51.980;5.646;2023-06-14T00:17:37;23.4;34.1
79187;SHT31;68762;51.980;5.646;2023-06-14T00:20:09;23.3;34.1
79187;SHT31;68762;51.980;5.646;2023-06-14T00:22:40;23.3;34.0
79187;SHT31;68762;51.980;5.646;2023-06-14T00:25:10;23.2;34.6
79187;SHT31;68762;51.980;5.646;2023-06-14T00:27:39;23.2;34.6
79187;SHT31;68762;51.980;5.646;2023-06-14T00:30:08;23.2;34.7
79187;SHT31;68762;51.980;5.646;2023-06-14T00:32:39;23.1;34.9
79187;SHT31;68762;51.980;5.646;2023-06-14T00:35:09;23.1;34.8
79187;SHT31;68762;51.980;5.646;2023-06-14T00:37:38;23.1;34.7
79187;SHT31;68762;51.980;5.646;2023-06-14T00:40:07;23.0;35.2
79187;SHT31;68762;51.980;5.646;2023-06-14T00:42:36;23.0;35.1
79187;SHT31;68762;51.980;5.646;2023-06-14T00:45:05;23.0;35.3
79187;SHT31;68762;51.980;5.646;2023-06-14T00:47:35;23.0;35.1
79187;SHT31;68762;51.980;5.646;2023-06-14T00:50:07;22.9;35.2
79187;SHT31;68762;51.980;5.646;2023-06-14T00:52:36;22.9;35.5
79187;SHT31;68762;51.980;5.646;2023-06-14T00:55:05;22.9;35.2
79187;SHT31;68762;51.980;5.646;2023-06-14T00:57:34;22.8;35.6
79187;SHT31;68762;51.980;5.646;2023-06-14T01:00:04;22.8;35.7
79187;SHT31;68762;51.980;5.646;2023-06-14T01:02:36;22.8;35.7
79187;SHT31;68762;51.980;5.646;2023-06-14T01:05:08;22.7;35.8
79187;SHT31;68762;51.980;5.646;2023-06-14T01:07:58;22.7;36.1
79187;SHT31;68762;51.980;5.646;2023-06-14T01:10:35;22.7;35.5
79187;SHT31;68762;51.980;5.646;2023-06-14T01:13:12;22.6;35.8
79187;SHT31;68762;51.980;5.646;2023-06-14T01:15:45;22.6;35.9
79187;SHT31;68762;51.980;5.646;2023-06-14T01:18:14;22.6;35.8
79187;SHT31;68762;51.980;5.646;2023-06-14T01:20:47;22.5;35.8
79187;SHT31;68762;51.980;5.646;2023-06-14T01:23:22;22.5;36.0
79187;SHT31;68762;51.980;5.646;2023-06-14T01:25:51;22.5;35.8
79187;SHT31;68762;51.980;5.646;2023-06-14T01:28:24;22.4;36.1
79187;SHT31;68762;51.980;5.646;2023-06-14T01:30:54;22.4;36.3
79187;SHT31;68762;51.980;5.646;2023-06-14T01:33:26;22.4;36.0
79187;SHT31;68762;51.980;5.646;2023-06-14T01:35:56;22.3;36.2
79187;SHT31;68762;51.980;5.646;2023-06-14T01:38:26;22.3;36.0
79187;SHT31;68762;51.980;5.646;2023-06-14T01:40:58;22.3;36.7
79187;SHT31;68762;51.980;5.646;2023-06-14T01:43:30;22.3;36.2
79187;SHT31;68762;51.980;5.646;2023-06-14T01:46:00;22.2;36.6
79187;SHT31;68762;51.980;5.646;2023-06-14T01:48:31;22.2;36.5
79187;SHT31;68762;51.980;5.646;2023-06-14T01:51:00;22.2;37.0
79187;SHT31;68762;51.980;5.646;2023-06-14T01:53:31;22.1;37.0
79187;SHT31;68762;51.980;5.646;2023-06-14T01:55:59;22.1;36.9
79187;SHT31;68762;51.980;5.646;2023-06-14T01:58:28;22.1;37.0
79187;SHT31;68762;51.980;5.646;2023-06-14T02:00:57;22.0;36.9
79187;SHT31;68762;51.980;5.646;2023-06-14T02:03:27;22.0;37.3
79187;SHT31;68762;51.980;5.646;2023-06-14T02:05:56;22.0;37.0
79187;SHT31;68762;51.980;5.646;2023-06-14T02:08:26;22.0;37.4
79187;SHT31;68762;51.980;5.646;2023-06-14T02:10:55;21.9;37.6
79187;SHT31;68762;51.980;5.646;2023-06-14T02:13:26;21.9;37.2
79187;SHT31;68762;51.980;5.646;2023-06-14T02:15:56;21.9;37.8
79187;SHT31;68762;51.980;5.646;2023-06-14T02:18:26;21.8;37.5
79187;SHT31;68762;51.980;5.646;2023-06-14T02:20:57;21.8;37.4
79187;SHT31;68762;51.980;5.646;2023-06-14T02:23:25;21.8;37.8
79187;SHT31;68762;51.980;5.646;2023-06-14T02:25:54;21.7;37.8
79187;SHT31;68762;51.980;5.646;2023-06-14T02:28:22;21.7;37.6
79187;SHT31;68762;51.980;5.646;2023-06-14T02:30:53;21.7;38.0
79187;SHT31;68762;51.980;5.646;2023-06-14T02:33:21;21.6;37.9
79187;SHT31;68762;51.980;5.646;2023-06-14T02:35:51;21.6;38.0
79187;SHT31;68762;51.980;5.646;2023-06-14T02:38:21;21.6;37.9
79187;SHT31;68762;51.980;5.646;2023-06-14T02:40:52;21.6;38.1
79187;SHT31;68762;51.980;5.646;2023-06-14T02:43:20;21.5;38.5
79187;SHT31;68762;51.980;5.646;2023-06-14T02:45:49;21.5;38.3
79187;SHT31;68762;51.980;5.646;2023-06-14T02:48:18;21.5;38.2
79187;SHT31;68762;51.980;5.646;2023-06-14T02:50:47;21.4;38.4
79187;SHT31;68762;51.980;5.646;2023-06-14T02:53:15;21.4;38.8
79187;SHT31;68762;51.980;5.646;2023-06-14T02:55:44;21.4;38.7
79187;SHT31;68762;51.980;5.646;2023-06-14T02:58:13;21.4;38.4
79187;SHT31;68762;51.980;5.646;2023-06-14T03:00:42;21.3;38.6
79187;SHT31;68762;51.980;5.646;2023-06-14T03:03:11;21.3;39.2
79187;SHT31;68762;51.980;5.646;2023-06-14T03:05:45;21.3;39.5
79187;SHT31;68762;51.980;5.646;2023-06-14T03:08:18;21.2;40.0
79187;SHT31;68762;51.980;5.646;2023-06-14T03:10:48;21.2;39.3
79187;SHT31;68762;51.980;5.646;2023-06-14T03:13:18;21.2;39.6
79187;SHT31;68762;51.980;5.646;2023-06-14T03:15:48;21.2;39.8
79187;SHT31;68762;51.980;5.646;2023-06-14T03:18:18;21.1;40.2
79187;SHT31;68762;51.980;5.646;2023-06-14T03:20:49;21.1;39.7
79187;SHT31;68762;51.980;5.646;2023-06-14T03:23:17;21.1;39.8
79187;SHT31;68762;51.980;5.646;2023-06-14T03:25:47;21.1;39.8
79187;SHT31;68762;51.980;5.646;2023-06-14T03:28:16;21.0;40.0
79187;SHT31;68762;51.980;5.646;2023-06-14T03:30:45;21.0;39.5
79187;SHT31;68762;51.980;5.646;2023-06-14T03:33:13;21.0;39.9
79187;SHT31;68762;51.980;5.646;2023-06-14T03:35:42;21.0;39.9
79187;SHT31;68762;51.980;5.646;2023-06-14T03:38:11;20.9;39.8
79187;SHT31;68762;51.980;5.646;2023-06-14T03:40:41;20.9;40.2
79187;SHT31;68762;51.980;5.646;2023-06-14T03:43:10;20.9;39.9
79187;SHT31;68762;51.980;5.646;2023-06-14T03:45:39;20.8;40.2
79187;SHT31;68762;51.980;5.646;2023-06-14T03:48:10;20.8;40.4
79187;SHT31;68762;51.980;5.646;2023-06-14T03:50:41;20.8;40.1
79187;SHT31;68762;51.980;5.646;2023-06-14T03:53:11;20.7;40.0
79187;SHT31;68762;51.980;5.646;2023-06-14T03:55:39;20.7;40.2
79187;SHT31;68762;51.980;5.646;2023-06-14T03:58:08;20.7;40.8
79187;SHT31;68762;51.980;5.646;2023-06-14T04:00:37;20.6;40.9
79187;SHT31;68762;51.980;5.646;2023-06-14T04:03:08;20.6;41.2
79187;SHT31;68762;51.980;5.646;2023-06-14T04:05:36;20.6;41.0
79187;SHT31;68762;51.980;5.646;2023-06-14T04:08:08;20.6;41.2
79187;SHT31;68762;51.980;5.646;2023-06-14T04:10:39;20.5;40.8
79187;SHT31;68762;51.980;5.646;2023-06-14T04:13:07;20.5;40.9
79187;SHT31;68762;51.980;5.646;2023-06-14T04:15:38;20.5;41.2
79187;SHT31;68762;51.980;5.646;2023-06-14T04:18:08;20.5;41.0
79187;SHT31;68762;51.980;5.646;2023-06-14T04:20:36;20.5;41.4
79187;SHT31;68762;51.980;5.646;2023-06-14T04:23:15;20.4;41.6
79187;SHT31;68762;51.980;5.646;2023-06-14T04:25:44;20.4;41.8
79187;SHT31;68762;51.980;5.646;2023-06-14T04:28:14;20.4;41.6
79187;SHT31;68762;51.980;5.646;2023-06-14T04:30:44;20.4;42.0
79187;SHT31;68762;51.980;5.646;2023-06-14T04:33:15;20.4;41.4
79187;SHT31;68762;51.980;5.646;2023-06-14T04:35:44;20.4;41.4
79187;SHT31;68762;51.980;5.646;2023-06-14T04:38:13;20.4;42.1
79187;SHT31;68762;51.980;5.646;2023-06-14T04:40:42;20.3;42.2
79187;SHT31;68762;51.980;5.646;2023-06-14T04:43:12;20.3;42.2
79187;SHT31;68762;51.980;5.646;2023-06-14T04:45:43;20.3;42.1
79187;SHT31;68762;51.980;5.646;2023-06-14T04:48:12;20.3;41.3
79187;SHT31;68762;51.980;5.646;2023-06-14T04:50:41;20.3;42.1
79187;SHT31;68762;51.980;5.646;2023-06-14T04:53:10;20.3;42.4
79187;SHT31;68762;51.980;5.646;2023-06-14T04:55:40;20.3;42.2
79187;SHT31;68762;51.980;5.646;2023-06-14T04:58:11;20.3;42.7
79187;SHT31;68762;51.980;5.646;2023-06-14T05:00:40;20.3;42.5
79187;SHT31;68762;51.980;5.646;2023-06-14T05:03:10;20.3;42.4
79187;SHT31;68762;51.980;5.646;2023-06-14T05:05:41;20.3;42.7
79187;SHT31;68762;51.980;5.646;2023-06-14T05:08:10;20.3;42.2
79187;SHT31;68762;51.980;5.646;2023-06-14T05:10:38;20.3;42.8
79187;SHT31;68762;51.980;5.646;2023-06-14T05:13:06;20.3;42.8
79187;SHT31;68762;51.980;5.646;2023-06-14T05:15:37;20.3;42.7
79187;SHT31;68762;51.980;5.646;2023-06-14T05:18:05;20.3;42.4
79187;SHT31;68762;51.980;5.646;2023-06-14T05:20:36;20.3;42.8
79187;SHT31;68762;51.980;5.646;2023-06-14T05:23:05;20.3;42.4
79187;SHT31;68762;51.980;5.646;2023-06-14T05:25:33;20.3;43.1
79187;SHT31;68762;51.980;5.646;2023-06-14T05:28:04;20.3;42.7
79187;SHT31;68762;51.980;5.646;2023-06-14T05:30:32;20.3;42.5
79187;SHT31;68762;51.980;5.646;2023-06-14T05:33:01;20.3;42.6
79187;SHT31;68762;51.980;5.646;2023-06-14T05:35:30;20.4;42.6
79187;SHT31;68762;51.980;5.646;2023-06-14T05:37:58;20.4;42.9
79187;SHT31;68762;51.980;5.646;2023-06-14T05:40:27;20.4;42.6
79187;SHT31;68762;51.980;5.646;2023-06-14T05:42:56;20.4;42.7
79187;SHT31;68762;51.980;5.646;2023-06-14T05:45:26;20.4;42.8
79187;SHT31;68762;51.980;5.646;2023-06-14T05:47:54;20.5;42.7
79187;SHT31;68762;51.980;5.646;2023-06-14T05:50:25;20.5;43.0
79187;SHT31;68762;51.980;5.646;2023-06-14T05:52:53;20.5;43.0
79187;SHT31;68762;51.980;5.646;2023-06-14T05:55:22;20.6;42.9
79187;SHT31;68762;51.980;5.646;2023-06-14T05:57:53;20.6;42.7
79187;SHT31;68762;51.980;5.646;2023-06-14T06:00:24;20.7;42.0
79187;SHT31;68762;51.980;5.646;2023-06-14T06:02:53;20.7;42.4
79187;SHT31;68762;51.980;5.646;2023-06-14T06:05:23;20.7;42.7
79187;SHT31;68762;51.980;5.646;2023-06-14T06:07:52;20.8;42.6
79187;SHT31;68762;51.980;5.646;2023-06-14T06:10:23;20.8;42.2
79187;SHT31;68762;51.980;5.646;2023-06-14T06:12:51;20.9;42.1
79187;SHT31;68762;51.980;5.646;2023-06-14T06:15:21;20.9;42.0
79187;SHT31;68762;51.980;5.646;2023-06-14T06:17:51;21.0;42.1
79187;SHT31;68762;51.980;5.646;2023-06-14T06:20:20;21.0;41.5
79187;SHT31;68762;51.980;5.646;2023-06-14T06:22:53;21.1;41.7
79187;SHT31;68762;51.980;5.646;2023-06-14T06:25:24;21.1;41.4
79187;SHT31;68762;51.980;5.646;2023-06-14T06:27:53;21.2;41.5
79187;SHT31;68762;51.980;5.646;2023-06-14T06:30:22;21.3;40.9
79187;SHT31;68762;51.980;5.646;2023-06-14T06:32:51;21.3;41.1
79187;SHT31;68762;51.980;5.646;2023-06-14T06:35:19;21.4;40.8
79187;SHT31;68762;51.980;5.646;2023-06-14T06:37:48;21.5;40.5
79187;SHT31;68762;51.980;5.646;2023-06-14T06:40:16;21.5;40.6
79187;SHT31;68762;51.980;5.646;2023-06-14T06:42:45;21.6;41.0
79187;SHT31;68762;51.980;5.646;2023-06-14T06:45:13;21.7;41.0
79187;SHT31;68762;51.980;5.646;2023-06-14T06:47:42;21.8;41.4
79187;SHT31;68762;51.980;5.646;2023-06-14T06:50:12;21.9;41.1
79187;SHT31;68762;51.980;5.646;2023-06-14T06:52:42;22.0;40.8
79187;SHT31;68762;51.980;5.646;2023-06-14T06:55:13;22.0;40.5
79187;SHT31;68762;51.980;5.646;2023-06-14T06:57:42;22.1;40.6
79187;SHT31;68762;51.980;5.646;2023-06-14T07:00:13;22.2;40.8
79187;SHT31;68762;51.980;5.646;2023-06-14T07:02:44;22.3;40.4
79187;SHT31;68762;51.980;5.646;2023-06-14T07:05:13;22.4;40.5
79187;SHT31;68762;51.980;5.646;2023-06-14T07:07:42;22.5;39.9
79187;SHT31;68762;51.980;5.646;2023-06-14T07:10:10;22.6;38.7
79187;SHT31;68762;51.980;5.646;2023-06-14T07:12:38;22.8;39.0
79187;SHT31;68762;51.980;5.646;2023-06-14T07:15:08;22.8;38.7
79187;SHT31;68762;51.980;5.646;2023-06-14T07:17:36;22.9;39.0
79187;SHT31;68762;51.980;5.646;2023-06-14T07:20:06;23.0;38.9
79187;SHT31;68762;51.980;5.646;2023-06-14T07:22:41;23.2;38.7
79187;SHT31;68762;51.980;5.646;2023-06-14T07:25:11;23.3;38.0
79187;SHT31;68762;51.980;5.646;2023-06-14T07:27:41;23.4;38.9
79187;SHT31;68762;51.980;5.646;2023-06-14T07:30:10;23.5;38.2
79187;SHT31;68762;51.980;5.646;2023-06-14T07:32:39;23.6;37.7
79187;SHT31;68762;51.980;5.646;2023-06-14T07:35:07;23.7;35.8
79187;SHT31;68762;51.980;5.646;2023-06-14T07:37:36;23.8;36.3
79187;SHT31;68762;51.980;5.646;2023-06-14T07:40:05;23.9;37.7
79187;SHT31;68762;51.980;5.646;2023-06-14T07:42:36;24.0;37.5
79187;SHT31;68762;51.980;5.646;2023-06-14T07:45:05;24.1;36.5
79187;SHT31;68762;51.980;5.646;2023-06-14T07:47:34;24.3;36.0
79187;SHT31;68762;51.980;5.646;2023-06-14T07:50:03;24.4;34.9
79187;SHT31;68762;51.980;5.646;2023-06-14T07:52:32;24.5;34.9
79187;SHT31;68762;51.980;5.646;2023-06-14T07:55:00;24.6;36.3
79187;SHT31;68762;51.980;5.646;2023-06-14T07:57:28;24.7;35.4
79187;SHT31;68762;51.980;5.646;2023-06-14T07:59:57;24.8;34.6
79187;SHT31;68762;51.980;5.646;2023-06-14T08:02:28;24.9;33.6
79187;SHT31;68762;51.980;5.646;2023-06-14T08:04:56;24.9;34.2
79187;SHT31;68762;51.980;5.646;2023-06-14T08:07:25;25.0;34.7
79187;SHT31;68762;51.980;5.646;2023-06-14T08:09:53;25.1;34.7
79187;SHT31;68762;51.980;5.646;2023-06-14T08:12:21;25.2;35.1
79187;SHT31;68762;51.980;5.646;2023-06-14T08:14:50;25.4;34.5
79187;SHT31;68762;51.980;5.646;2023-06-14T08:17:19;25.5;33.9
79187;SHT31;68762;51.980;5.646;2023-06-14T08:19:47;25.6;33.9
79187;SHT31;68762;51.980;5.646;2023-06-14T08:22:16;25.7;33.9
79187;SHT31;68762;51.980;5.646;2023-06-14T08:24:44;25.8;34.2
79187;SHT31;68762;51.980;5.646;2023-06-14T08:27:14;25.9;35.0
79187;SHT31;68762;51.980;5.646;2023-06-14T08:29:42;26.0;33.2
79187;SHT31;68762;51.980;5.646;2023-06-14T08:32:13;26.1;33.5
79187;SHT31;68762;51.980;5.646;2023-06-14T08:34:41;26.3;33.7
79187;SHT31;68762;51.980;5.646;2023-06-14T08:37:10;26.4;33.0
79187;SHT31;68762;51.980;5.646;2023-06-14T08:39:38;26.5;32.4
79187;SHT31;68762;51.980;5.646;2023-06-14T08:42:09;26.6;33.0
79187;SHT31;68762;51.980;5.646;2023-06-14T08:44:38;26.7;32.7
79187;SHT31;68762;51.980;5.646;2023-06-14T08:47:07;26.8;32.2
79187;SHT31;68762;51.980;5.646;2023-06-14T08:49:40;26.9;32.4
79187;SHT31;68762;51.980;5.646;2023-06-14T08:52:13;27.1;32.4
79187;SHT31;68762;51.980;5.646;2023-06-14T08:54:45;27.2;32.1
79187;SHT31;68762;51.980;5.646;2023-06-14T08:57:15;27.3;31.2
79187;SHT31;68762;51.980;5.646;2023-06-14T08:59:47;27.3;30.4
79187;SHT31;68762;51.980;5.646;2023-06-14T09:02:19;27.4;29.9
79187;SHT31;68762;51.980;5.646;2023-06-14T09:04:48;27.5;28.6
79187;SHT31;68762;51.980;5.646;2023-06-14T09:07:17;27.6;29.8
79187;SHT31;68762;51.980;5.646;2023-06-14T09:09:47;27.6;29.7
79187;SHT31;68762;51.980;5.646;2023-06-14T09:12:16;27.7;29.2
79187;SHT31;68762;51.980;5.646;2023-06-14T09:14:45;27.8;30.7
79187;SHT31;68762;51.980;5.646;2023-06-14T09:17:15;27.9;30.5
79187;SHT31;68762;51.980;5.646;2023-06-14T09:19:45;28.0;29.8
79187;SHT31;68762;51.980;5.646;2023-06-14T09:22:16;28.1;29.7
79187;SHT31;68762;51.980;5.646;2023-06-14T09:24:45;28.2;29.8
79187;SHT31;68762;51.980;5.646;2023-06-14T09:27:16;28.3;29.1
79187;SHT31;68762;51.980;5.646;2023-06-14T09:29:44;28.3;28.2
79187;SHT31;68762;51.980;5.646;2023-06-14T09:32:13;28.4;29.3
79187;SHT31;68762;51.980;5.646;2023-06-14T09:34:42;28.5;26.6
79187;SHT31;68762;51.980;5.646;2023-06-14T09:37:10;28.6;26.4
79187;SHT31;68762;51.980;5.646;2023-06-14T09:39:50;28.6;27.9
79187;SHT31;68762;51.980;5.646;2023-06-14T09:42:19;28.7;29.1
79187;SHT31;68762;51.980;5.646;2023-06-14T09:44:50;28.8;28.3
79187;SHT31;68762;51.980;5.646;2023-06-14T09:47:19;28.8;28.2
79187;SHT31;68762;51.980;5.646;2023-06-14T09:49:48;28.9;27.2
79187;SHT31;68762;51.980;5.646;2023-06-14T09:52:19;29.0;28.9
79187;SHT31;68762;51.980;5.646;2023-06-14T09:54:48;29.1;28.5
79187;SHT31;68762;51.980;5.646;2023-06-14T09:57:21;29.1;27.2
79187;SHT31;68762;51.980;5.646;2023-06-14T09:59:54;29.2;27.1
79187;SHT31;68762;51.980;5.646;2023-06-14T10:02:28;29.3;26.5
79187;SHT31;68762;51.980;5.646;2023-06-14T10:05:07;29.3;26.5
79187;SHT31;68762;51.980;5.646;2023-06-14T10:07:40;29.4;29.2
79187;SHT31;68762;51.980;5.646;2023-06-14T10:10:11;29.4;28.5
79187;SHT31;68762;51.980;5.646;2023-06-14T10:12:40;29.5;28.1
79187;SHT31;68762;51.980;5.646;2023-06-14T10:15:18;29.6;27.5
79187;SHT31;68762;51.980;5.646;2023-06-14T10:17:51;29.6;27.8
79187;SHT31;68762;51.980;5.646;2023-06-14T10:20:27;29.7;28.4
79187;SHT31;68762;51.980;5.646;2023-06-14T10:23:01;29.7;27.3
79187;SHT31;68762;51.980;5.646;2023-06-14T10:25:33;29.8;27.3
79187;SHT31;68762;51.980;5.646;2023-06-14T10:28:18;29.8;27.1
79187;SHT31;68762;51.980;5.646;2023-06-14T10:31:08;29.9;28.4
79187;SHT31;68762;51.980;5.646;2023-06-14T10:33:49;30.0;26.7
79187;SHT31;68762;51.980;5.646;2023-06-14T10:36:28;30.0;28.1
79187;SHT31;68762;51.980;5.646;2023-06-14T10:39:04;30.1;27.5
79187;SHT31;68762;51.980;5.646;2023-06-14T10:41:37;30.2;28.7
79187;SHT31;68762;51.980;5.646;2023-06-14T10:44:40;30.2;28.4
79187;SHT31;68762;51.980;5.646;2023-06-14T10:47:10;30.3;27.8
79187;SHT31;68762;51.980;5.646;2023-06-14T10:49:41;30.4;26.3
79187;SHT31;68762;51.980;5.646;2023-06-14T10:52:12;30.4;26.0
79187;SHT31;68762;51.980;5.646;2023-06-14T10:54:58;30.5;26.4
79187;SHT31;68762;51.980;5.646;2023-06-14T10:57:27;30.5;27.1
79187;SHT31;68762;51.980;5.646;2023-06-14T11:00:03;30.5;27.2
79187;SHT31;68762;51.980;5.646;2023-06-14T11:02:48;30.6;27.1
79187;SHT31;68762;51.980;5.646;2023-06-14T11:05:24;30.6;26.9
79187;SHT31;68762;51.980;5.646;2023-06-14T11:08:13;30.6;25.2
79187;SHT31;68762;51.980;5.646;2023-06-14T11:10:45;30.7;26.3
79187;SHT31;68762;51.980;5.646;2023-06-14T11:13:16;30.7;26.5
79187;SHT31;68762;51.980;5.646;2023-06-14T11:15:47;30.7;25.3
79187;SHT31;68762;51.980;5.646;2023-06-14T11:18:21;30.7;25.8
79187;SHT31;68762;51.980;5.646;2023-06-14T11:20:50;30.8;25.6
79187;SHT31;68762;51.980;5.646;2023-06-14T11:23:19;30.8;26.4
79187;SHT31;68762;51.980;5.646;2023-06-14T11:25:52;30.8;25.0
79187;SHT31;68762;51.980;5.646;2023-06-14T11:28:20;30.9;27.5
79187;SHT31;68762;51.980;5.646;2023-06-14T11:31:01;30.9;25.5
79187;SHT31;68762;51.980;5.646;2023-06-14T11:33:30;30.9;25.1
79187;SHT31;68762;51.980;5.646;2023-06-14T11:36:01;30.9;26.5
79187;SHT31;68762;51.980;5.646;2023-06-14T11:38:29;31.0;25.0
79187;SHT31;68762;51.980;5.646;2023-06-14T11:41:00;31.0;25.6
79187;SHT31;68762;51.980;5.646;2023-06-14T11:43:30;31.0;25.5
79187;SHT31;68762;51.980;5.646;2023-06-14T11:46:01;31.0;24.7
79187;SHT31;68762;51.980;5.646;2023-06-14T11:48:41;31.1;24.8
79187;SHT31;68762;51.980;5.646;2023-06-14T11:51:10;31.1;23.3
79187;SHT31;68762;51.980;5.646;2023-06-14T11:53:40;31.1;24.5
79187;SHT31;68762;51.980;5.646;2023-06-14T11:56:10;31.1;25.8
79187;SHT31;68762;51.980;5.646;2023-06-14T11:58:39;31.1;24.4
79187;SHT31;68762;51.980;5.646;2023-06-14T12:01:10;31.1;25.6
79187;SHT31;68762;51.980;5.646;2023-06-14T12:03:49;31.2;26.9
79187;SHT31;68762;51.980;5.646;2023-06-14T12:06:28;31.2;25.3
79187;SHT31;68762;51.980;5.646;2023-06-14T12:09:00;31.3;24.0
79187;SHT31;68762;51.980;5.646;2023-06-14T12:11:34;31.3;23.5
79187;SHT31;68762;51.980;5.646;2023-06-14T12:14:05;31.3;25.2
79187;SHT31;68762;51.980;5.646;2023-06-14T12:16:37;31.3;25.0
79187;SHT31;68762;51.980;5.646;2023-06-14T12:19:16;31.3;24.7
79187;SHT31;68762;51.980;5.646;2023-06-14T12:21:46;31.3;25.7
79187;SHT31;68762;51.980;5.646;2023-06-14T12:24:17;31.3;25.8
79187;SHT31;68762;51.980;5.646;2023-06-14T12:26:46;31.3;25.8
79187;SHT31;68762;51.980;5.646;2023-06-14T12:29:14;31.3;26.5
79187;SHT31;68762;51.980;5.646;2023-06-14T12:31:43;31.4;26.8
79187;SHT31;68762;51.980;5.646;2023-06-14T12:34:12;31.4;26.2
79187;SHT31;68762;51.980;5.646;2023-06-14T12:36:40;31.4;24.9
79187;SHT31;68762;51.980;5.646;2023-06-14T12:39:13;31.5;24.3
79187;SHT31;68762;51.980;5.646;2023-06-14T12:41:41;31.5;25.7
79187;SHT31;68762;51.980;5.646;2023-06-14T12:44:10;31.5;26.1
79187;SHT31;68762;51.980;5.646;2023-06-14T12:46:39;31.5;26.0
79187;SHT31;68762;51.980;5.646;2023-06-14T12:49:10;31.5;25.8
79187;SHT31;68762;51.980;5.646;2023-06-14T12:51:39;31.5;24.8
79187;SHT31;68762;51.980;5.646;2023-06-14T12:54:09;31.6;24.2
79187;SHT31;68762;51.980;5.646;2023-06-14T12:56:38;31.6;25.4
79187;SHT31;68762;51.980;5.646;2023-06-14T12:59:08;31.6;24.6
79187;SHT31;68762;51.980;5.646;2023-06-14T13:01:38;31.6;24.9
79187;SHT31;68762;51.980;5.646;2023-06-14T13:04:07;31.6;23.4
79187;SHT31;68762;51.980;5.646;2023-06-14T13:06:35;31.6;24.0
79187;SHT31;68762;51.980;5.646;2023-06-14T13:09:05;31.6;25.7
79187;SHT31;68762;51.980;5.646;2023-06-14T13:11:34;31.6;25.9
79187;SHT31;68762;51.980;5.646;2023-06-14T13:14:03;31.6;25.4
79187;SHT31;68762;51.980;5.646;2023-06-14T13:16:31;31.6;25.2
79187;SHT31;68762;51.980;5.646;2023-06-14T13:19:02;31.6;25.2
79187;SHT31;68762;51.980;5.646;2023-06-14T13:21:30;31.7;24.8
79187;SHT31;68762;51.980;5.646;2023-06-14T13:23:59;31.7;24.4
79187;SHT31;68762;51.980;5.646;2023-06-14T13:26:30;31.7;25.7
79187;SHT31;68762;51.980;5.646;2023-06-14T13:28:58;31.7;25.7
79187;SHT31;68762;51.980;5.646;2023-06-14T13:31:27;31.7;26.3
79187;SHT31;68762;51.980;5.646;2023-06-14T13:33:55;31.7;26.4
79187;SHT31;68762;51.980;5.646;2023-06-14T13:36:24;31.7;25.0
79187;SHT31;68762;51.980;5.646;2023-06-14T13:38:52;31.7;25.3
79187;SHT31;68762;51.980;5.646;2023-06-14T13:41:21;31.7;25.3
79187;SHT31;68762;51.980;5.646;2023-06-14T13:43:49;31.7;24.5
79187;SHT31;68762;51.980;5.646;2023-06-14T13:46:18;31.7;26.0
79187;SHT31;68762;51.980;5.646;2023-06-14T13:48:50;31.7;25.5
79187;SHT31;68762;51.980;5.646;2023-06-14T13:51:19;31.7;26.1
79187;SHT31;68762;51.980;5.646;2023-06-14T13:53:48;31.8;25.7
79187;SHT31;68762;51.980;5.646;2023-06-14T13:56:18;31.8;25.3
79187;SHT31;68762;51.980;5.646;2023-06-14T13:58:47;31.8;25.5
79187;SHT31;68762;51.980;5.646;2023-06-14T14:01:16;31.8;23.2
79187;SHT31;68762;51.980;5.646;2023-06-14T14:03:46;31.9;25.2
79187;SHT31;68762;51.980;5.646;2023-06-14T14:06:16;31.9;25.0
79187;SHT31;68762;51.980;5.646;2023-06-14T14:08:44;31.9;25.4
79187;SHT31;68762;51.980;5.646;2023-06-14T14:11:13;31.9;24.1
79187;SHT31;68762;51.980;5.646;2023-06-14T14:13:42;31.9;24.7
79187;SHT31;68762;51.980;5.646;2023-06-14T14:16:12;32.0;24.5
79187;SHT31;68762;51.980;5.646;2023-06-14T14:18:40;32.0;24.9
79187;SHT31;68762;51.980;5.646;2023-06-14T14:21:09;32.0;25.1
79187;SHT31;68762;51.980;5.646;2023-06-14T14:23:37;32.0;24.6
79187;SHT31;68762;51.980;5.646;2023-06-14T14:26:06;32.0;24.9
79187;SHT31;68762;51.980;5.646;2023-06-14T14:28:35;32.0;22.6
79187;SHT31;68762;51.980;5.646;2023-06-14T14:31:03;32.0;22.5
79187;SHT31;68762;51.980;5.646;2023-06-14T14:33:32;32.0;23.0
79187;SHT31;68762;51.980;5.646;2023-06-14T14:36:01;31.9;24.5
79187;SHT31;68762;51.980;5.646;2023-06-14T14:38:31;31.9;23.9
79187;SHT31;68762;51.980;5.646;2023-06-14T14:40:59;31.9;24.1
79187;SHT31;68762;51.980;5.646;2023-06-14T14:43:28;31.8;24.7
79187;SHT31;68762;51.980;5.646;2023-06-14T14:45:58;31.8;23.2
79187;SHT31;68762;51.980;5.646;2023-06-14T14:48:27;31.8;23.6
79187;SHT31;68762;51.980;5.646;2023-06-14T14:50:56;31.8;24.5
79187;SHT31;68762;51.980;5.646;2023-06-14T14:53:26;31.8;23.7
79187;SHT31;68762;51.980;5.646;2023-06-14T14:55:55;31.8;23.5
79187;SHT31;68762;51.980;5.646;2023-06-14T14:58:23;31.7;24.0
79187;SHT31;68762;51.980;5.646;2023-06-14T15:00:52;31.7;23.3
79187;SHT31;68762;51.980;5.646;2023-06-14T15:03:21;31.7;23.3
79187;SHT31;68762;51.980;5.646;2023-06-14T15:05:49;31.7;24.7
79187;SHT31;68762;51.980;5.646;2023-06-14T15:08:19;31.6;25.1
79187;SHT31;68762;51.980;5.646;2023-06-14T15:10:50;31.6;25.0
79187;SHT31;68762;51.980;5.646;2023-06-14T15:13:18;31.6;24.9
79187;SHT31;68762;51.980;5.646;2023-06-14T15:15:49;31.6;24.9
79187;SHT31;68762;51.980;5.646;2023-06-14T15:18:18;31.6;22.6
79187;SHT31;68762;51.980;5.646;2023-06-14T15:20:49;31.6;23.4
79187;SHT31;68762;51.980;5.646;2023-06-14T15:23:18;31.6;22.8
79187;SHT31;68762;51.980;5.646;2023-06-14T15:25:48;31.5;22.5
79187;SHT31;68762;51.980;5.646;2023-06-14T15:28:18;31.5;23.5
79187;SHT31;68762;51.980;5.646;2023-06-14T15:30:48;31.5;26.6
79187;SHT31;68762;51.980;5.646;2023-06-14T15:33:16;31.5;26.3
79187;SHT31;68762;51.980;5.646;2023-06-14T15:35:45;31.5;26.4
79187;SHT31;68762;51.980;5.646;2023-06-14T15:38:13;31.5;27.0
79187;SHT31;68762;51.980;5.646;2023-06-14T15:40:42;31.5;24.9
79187;SHT31;68762;51.980;5.646;2023-06-14T15:43:14;31.5;26.2
79187;SHT31;68762;51.980;5.646;2023-06-14T15:45:43;31.5;25.5
79187;SHT31;68762;51.980;5.646;2023-06-14T15:48:12;31.5;26.8
79187;SHT31;68762;51.980;5.646;2023-06-14T15:50:40;31.5;25.1
79187;SHT31;68762;51.980;5.646;2023-06-14T15:53:11;31.5;26.3
79187;SHT31;68762;51.980;5.646;2023-06-14T15:55:39;31.5;26.8
79187;SHT31;68762;51.980;5.646;2023-06-14T15:58:07;31.5;26.4
79187;SHT31;68762;51.980;5.646;2023-06-14T16:00:36;31.5;25.8
79187;SHT31;68762;51.980;5.646;2023-06-14T16:03:04;31.5;26.0
79187;SHT31;68762;51.980;5.646;2023-06-14T16:05:33;31.5;26.4
79187;SHT31;68762;51.980;5.646;2023-06-14T16:08:01;31.5;25.8
79187;SHT31;68762;51.980;5.646;2023-06-14T16:10:30;31.4;26.5
79187;SHT31;68762;51.980;5.646;2023-06-14T16:12:58;31.4;26.0
79187;SHT31;68762;51.980;5.646;2023-06-14T16:15:27;31.4;26.0
79187;SHT31;68762;51.980;5.646;2023-06-14T16:17:55;31.4;26.6
79187;SHT31;68762;51.980;5.646;2023-06-14T16:20:24;31.3;26.1